sensor_id;sensor_type;location;lat;lon;timestamp;temperature;humidity
39103;DHT22;24847;48.218;16.414;2022-12-10T00:01:51;2.70;99.90
39103;DHT22;24847;48.218;16.414;2022-12-10T00:06:55;2.60;99.90
39103;DHT22;24847;48.218;16.414;2022-12-10T00:11:58;2.60;99.90
39103;DHT22;24847;48.218;16.414;2022-12-10T00:17:00;2.70;99.90
39103;DHT22;24847;48.218;16.414;2022-12-10T00:22:04;2.80;99.90
39103;DHT22;24847;48.218;16.414;2022-12-10T00:27:06;2.60;99.90
39103;DHT22;24847;48.218;16.414;2022-12-10T00:32:08;2.60;99.90
39103;DHT22;24847;48.218;16.414;2022-12-10T00:37:12;2.70;99.90
39103;DHT22;24847;48.218;16.414;2022-12-10T00:42:14;2.70;99.90
39103;DHT22;24847;48.218;16.414;2022-12-10T00:47:17;2.80;99.90
39103;DHT22;24847;48.218;16.414;2022-12-10T00:52:21;2.70;99.90
39103;DHT22;24847;48.218;16.414;2022-12-10T00:57:23;2.70;99.90
39103;DHT22;24847;48.218;16.414;2022-12-10T01:02:26;2.60;99.90
39103;DHT22;24847;48.218;16.414;2022-12-10T01:07:29;2.50;99.90
39103;DHT22;24847;48.218;16.414;2022-12-10T01:12:32;2.70;99.90
39103;DHT22;24847;48.218;16.414;2022-12-10T01:17:34;2.80;99.90
39103;DHT22;24847;48.218;16.414;2022-12-10T01:22:38;2.80;99.90
39103;DHT22;24847;48.218;16.414;2022-12-10T01:27:40;2.70;99.90
39103;DHT22;24847;48.218;16.414;2022-12-10T01:32:42;2.70;99.90
39103;DHT22;24847;48.218;16.414;2022-12-10T01:37:46;2.80;99.90
39103;DHT22;24847;48.218;16.414;2022-12-10T01:42:48;2.80;99.90
39103;DHT22;24847;48.218;16.414;2022-12-10T01:47:51;2.90;99.90
39103;DHT22;24847;48.218;16.414;2022-12-10T01:52:54;2.90;99.90
39103;DHT22;24847;48.218;16.414;2022-12-10T01:57:57;3.00;99.90
39103;DHT22;24847;48.218;16.414;2022-12-10T02:03:04;3.00;99.90
39103;DHT22;24847;48.218;16.414;2022-12-10T02:08:17;3.00;99.90
39103;DHT22;24847;48.218;16.414;2022-12-10T02:13:23;3.00;99.90
39103;DHT22;24847;48.218;16.414;2022-12-10T02:18:30;3.00;99.90
39103;DHT22;24847;48.218;16.414;2022-12-10T02:23:39;2.90;99.90
39103;DHT22;24847;48.218;16.414;2022-12-10T02:28:49;2.90;99.90
39103;DHT22;24847;48.218;16.414;2022-12-10T02:33:56;2.90;99.90
39103;DHT22;24847;48.218;16.414;2022-12-10T02:39:02;2.90;99.90
39103;DHT22;24847;48.218;16.414;2022-12-10T02:44:10;3.00;99.90
39103;DHT22;24847;48.218;16.414;2022-12-10T02:49:16;2.90;99.90
39103;DHT22;24847;48.218;16.414;2022-12-10T02:54:35;2.80;99.90
39103;DHT22;24847;48.218;16.414;2022-12-10T02:59:50;2.90;99.90
39103;DHT22;24847;48.218;16.414;2022-12-10T03:05:10;2.80;99.90
39103;DHT22;24847;48.218;16.414;2022-12-10T03:10:23;2.90;99.90
39103;DHT22;24847;48.218;16.414;2022-12-10T03:15:28;2.80;99.90
39103;DHT22;24847;48.218;16.414;2022-12-10T03:20:38;2.80;99.90
39103;DHT22;24847;48.218;16.414;2022-12-10T03:25:42;2.90;99.90
39103;DHT22;24847;48.218;16.414;2022-12-10T03:30:46;2.70;99.90
39103;DHT22;24847;48.218;16.414;2022-12-10T03:35:51;2.80;99.90
39103;DHT22;24847;48.218;16.414;2022-12-10T03:40:54;2.70;99.90
39103;DHT22;24847;48.218;16.414;2022-12-10T03:45:56;2.80;99.90
39103;DHT22;24847;48.218;16.414;2022-12-10T03:51:00;2.90;99.90
39103;DHT22;24847;48.218;16.414;2022-12-10T03:56:02;2.90;99.90
39103;DHT22;24847;48.218;16.414;2022-12-10T04:01:04;2.90;99.90
39103;DHT22;24847;48.218;16.414;2022-12-10T04:06:11;3.10;99.90
39103;DHT22;24847;48.218;16.414;2022-12-10T04:11:16;3.00;99.90
39103;DHT22;24847;48.218;16.414;2022-12-10T04:16:18;3.10;99.90
39103;DHT22;24847;48.218;16.414;2022-12-10T04:21:33;3.10;99.90
39103;DHT22;24847;48.218;16.414;2022-12-10T04:26:54;3.10;99.90
39103;DHT22;24847;48.218;16.414;2022-12-10T04:31:57;3.10;99.90
39103;DHT22;24847;48.218;16.414;2022-12-10T04:37:03;3.00;99.90
39103;DHT22;24847;48.218;16.414;2022-12-10T04:42:05;3.20;99.90
39103;DHT22;24847;48.218;16.414;2022-12-10T04:47:09;3.20;99.90
39103;DHT22;24847;48.218;16.414;2022-12-10T04:52:14;3.20;99.90
39103;DHT22;24847;48.218;16.414;2022-12-10T04:57:17;3.20;99.90
39103;DHT22;24847;48.218;16.414;2022-12-10T05:02:20;3.10;99.90
39103;DHT22;24847;48.218;16.414;2022-12-10T05:07:23;3.10;99.90
39103;DHT22;24847;48.218;16.414;2022-12-10T05:12:25;3.00;99.90
39103;DHT22;24847;48.218;16.414;2022-12-10T05:17:27;3.10;99.90
39103;DHT22;24847;48.218;16.414;2022-12-10T05:22:31;3.00;99.90
39103;DHT22;24847;48.218;16.414;2022-12-10T05:27:50;3.00;99.90
39103;DHT22;24847;48.218;16.414;2022-12-10T05:32:53;3.00;99.90
39103;DHT22;24847;48.218;16.414;2022-12-10T05:37:56;3.00;99.90
39103;DHT22;24847;48.218;16.414;2022-12-10T05:42:59;3.00;99.90
39103;DHT22;24847;48.218;16.414;2022-12-10T05:48:01;2.80;99.90
39103;DHT22;24847;48.218;16.414;2022-12-10T05:53:05;2.90;99.90
39103;DHT22;24847;48.218;16.414;2022-12-10T05:58:07;3.00;99.90
39103;DHT22;24847;48.218;16.414;2022-12-10T06:03:10;2.90;99.90
39103;DHT22;24847;48.218;16.414;2022-12-10T06:08:13;3.00;99.90
39103;DHT22;24847;48.218;16.414;2022-12-10T06:13:15;2.90;99.90
39103;DHT22;24847;48.218;16.414;2022-12-10T06:18:18;3.10;99.90
39103;DHT22;24847;48.218;16.414;2022-12-10T06:23:22;3.10;99.90
39103;DHT22;24847;48.218;16.414;2022-12-10T06:28:25;3.20;99.90
39103;DHT22;24847;48.218;16.414;2022-12-10T06:33:27;3.10;99.90
39103;DHT22;24847;48.218;16.414;2022-12-10T06:38:31;3.10;99.90
39103;DHT22;24847;48.218;16.414;2022-12-10T06:43:33;3.10;99.90
39103;DHT22;24847;48.218;16.414;2022-12-10T06:48:36;3.10;99.90
39103;DHT22;24847;48.218;16.414;2022-12-10T06:53:40;3.10;99.90
39103;DHT22;24847;48.218;16.414;2022-12-10T06:58:43;3.00;99.90
39103;DHT22;24847;48.218;16.414;2022-12-10T07:03:48;3.10;99.90
39103;DHT22;24847;48.218;16.414;2022-12-10T07:08:52;2.90;99.90
39103;DHT22;24847;48.218;16.414;2022-12-10T07:13:54;3.00;99.90
39103;DHT22;24847;48.218;16.414;2022-12-10T07:18:58;3.10;99.90
39103;DHT22;24847;48.218;16.414;2022-12-10T07:24:05;3.10;99.90
39103;DHT22;24847;48.218;16.414;2022-12-10T07:29:12;3.10;99.90
39103;DHT22;24847;48.218;16.414;2022-12-10T07:34:15;3.10;99.90
39103;DHT22;24847;48.218;16.414;2022-12-10T07:39:19;3.20;99.90
39103;DHT22;24847;48.218;16.414;2022-12-10T07:44:23;3.10;99.90
39103;DHT22;24847;48.218;16.414;2022-12-10T07:49:26;3.10;99.90
39103;DHT22;24847;48.218;16.414;2022-12-10T07:54:30;3.10;99.90
39103;DHT22;24847;48.218;16.414;2022-12-10T07:59:32;3.00;99.90
39103;DHT22;24847;48.218;16.414;2022-12-10T08:04:35;3.00;99.90
39103;DHT22;24847;48.218;16.414;2022-12-10T08:09:40;3.00;99.90
39103;DHT22;24847;48.218;16.414;2022-12-10T08:14:42;2.90;99.90
39103;DHT22;24847;48.218;16.414;2022-12-10T08:19:44;3.00;99.90
39103;DHT22;24847;48.218;16.414;2022-12-10T08:24:48;3.00;99.90
39103;DHT22;24847;48.218;16.414;2022-12-10T08:29:50;3.10;99.90
39103;DHT22;24847;48.218;16.414;2022-12-10T08:34:52;3.00;99.90
39103;DHT22;24847;48.218;16.414;2022-12-10T08:39:56;3.10;99.90
39103;DHT22;24847;48.218;16.414;2022-12-10T08:44:58;3.00;99.90
39103;DHT22;24847;48.218;16.414;2022-12-10T08:50:03;3.00;99.90
39103;DHT22;24847;48.218;16.414;2022-12-10T08:55:08;3.00;99.90
39103;DHT22;24847;48.218;16.414;2022-12-10T09:00:11;3.10;99.90
39103;DHT22;24847;48.218;16.414;2022-12-10T09:05:14;3.10;99.90
39103;DHT22;24847;48.218;16.414;2022-12-10T09:10:18;3.00;99.90
39103;DHT22;24847;48.218;16.414;2022-12-10T09:15:21;3.00;99.90
39103;DHT22;24847;48.218;16.414;2022-12-10T09:20:23;3.10;99.90
39103;DHT22;24847;48.218;16.414;2022-12-10T09:25:27;3.20;99.90
39103;DHT22;24847;48.218;16.414;2022-12-10T09:30:29;3.20;99.90
39103;DHT22;24847;48.218;16.414;2022-12-10T09:35:31;3.10;99.90
39103;DHT22;24847;48.218;16.414;2022-12-10T09:40:40;3.20;99.90
39103;DHT22;24847;48.218;16.414;2022-12-10T09:45:58;3.20;99.90
39103;DHT22;24847;48.218;16.414;2022-12-10T09:51:07;3.10;99.90
39103;DHT22;24847;48.218;16.414;2022-12-10T09:56:18;3.10;99.90
39103;DHT22;24847;48.218;16.414;2022-12-10T10:01:25;3.20;99.90
39103;DHT22;24847;48.218;16.414;2022-12-10T10:06:30;3.20;99.90
39103;DHT22;24847;48.218;16.414;2022-12-10T10:11:35;3.10;99.90
39103;DHT22;24847;48.218;16.414;2022-12-10T10:16:42;3.20;99.90
39103;DHT22;24847;48.218;16.414;2022-12-10T10:21:48;3.20;99.90
39103;DHT22;24847;48.218;16.414;2022-12-10T10:26:57;3.20;99.90
39103;DHT22;24847;48.218;16.414;2022-12-10T10:32:15;3.20;99.90
39103;DHT22;24847;48.218;16.414;2022-12-10T10:37:21;3.50;99.90
39103;DHT22;24847;48.218;16.414;2022-12-10T10:42:33;3.60;99.90
39103;DHT22;24847;48.218;16.414;2022-12-10T10:47:37;3.60;99.90
39103;DHT22;24847;48.218;16.414;2022-12-10T10:52:41;3.50;99.90
39103;DHT22;24847;48.218;16.414;2022-12-10T10:57:45;3.70;99.90
39103;DHT22;24847;48.218;16.414;2022-12-10T11:02:47;3.50;99.90
39103;DHT22;24847;48.218;16.414;2022-12-10T11:07:57;3.60;99.90
39103;DHT22;24847;48.218;16.414;2022-12-10T11:13:04;3.60;99.90
39103;DHT22;24847;48.218;16.414;2022-12-10T11:18:24;3.50;99.90
39103;DHT22;24847;48.218;16.414;2022-12-10T11:23:39;3.70;99.90
39103;DHT22;24847;48.218;16.414;2022-12-10T11:28:55;3.90;99.90
39103;DHT22;24847;48.218;16.414;2022-12-10T11:34:04;3.70;99.90
39103;DHT22;24847;48.218;16.414;2022-12-10T11:39:24;3.80;99.90
39103;DHT22;24847;48.218;16.414;2022-12-10T11:44:53;3.60;99.90
39103;DHT22;24847;48.218;16.414;2022-12-10T11:50:11;3.60;99.90
39103;DHT22;24847;48.218;16.414;2022-12-10T11:55:24;3.50;99.90
39103;DHT22;24847;48.218;16.414;2022-12-10T12:00:37;3.40;99.90
39103;DHT22;24847;48.218;16.414;2022-12-10T12:05:54;3.40;99.90
39103;DHT22;24847;48.218;16.414;2022-12-10T12:11:13;3.60;99.90
39103;DHT22;24847;48.218;16.414;2022-12-10T12:16:27;3.70;99.90
39103;DHT22;24847;48.218;16.414;2022-12-10T12:21:33;3.60;99.90
39103;DHT22;24847;48.218;16.414;2022-12-10T12:26:38;3.60;99.90
39103;DHT22;24847;48.218;16.414;2022-12-10T12:31:46;3.60;99.90
39103;DHT22;24847;48.218;16.414;2022-12-10T12:36:51;3.50;99.90
39103;DHT22;24847;48.218;16.414;2022-12-10T12:41:59;3.40;99.90
39103;DHT22;24847;48.218;16.414;2022-12-10T12:47:28;3.50;99.90
39103;DHT22;24847;48.218;16.414;2022-12-10T12:52:40;3.50;99.90
39103;DHT22;24847;48.218;16.414;2022-12-10T12:57:49;3.50;99.90
39103;DHT22;24847;48.218;16.414;2022-12-10T13:03:04;3.60;99.90
39103;DHT22;24847;48.218;16.414;2022-12-10T13:08:27;3.40;99.90
39103;DHT22;24847;48.218;16.414;2022-12-10T13:14:11;3.40;99.90
39103;DHT22;24847;48.218;16.414;2022-12-10T13:19:28;3.30;99.90
39103;DHT22;24847;48.218;16.414;2022-12-10T13:25:10;3.30;99.90
39103;DHT22;24847;48.218;16.414;2022-12-10T13:30:41;3.50;99.90
39103;DHT22;24847;48.218;16.414;2022-12-10T13:35:56;3.50;99.90
39103;DHT22;24847;48.218;16.414;2022-12-10T13:41:02;3.50;99.90
39103;DHT22;24847;48.218;16.414;2022-12-10T13:46:26;3.40;99.90
39103;DHT22;24847;48.218;16.414;2022-12-10T13:51:43;3.50;99.90
39103;DHT22;24847;48.218;16.414;2022-12-10T13:56:55;3.40;99.90
39103;DHT22;24847;48.218;16.414;2022-12-10T14:02:24;3.30;99.90
39103;DHT22;24847;48.218;16.414;2022-12-10T14:07:36;3.30;99.90
39103;DHT22;24847;48.218;16.414;2022-12-10T14:12:41;3.20;99.90
39103;DHT22;24847;48.218;16.414;2022-12-10T14:17:44;3.30;99.90
39103;DHT22;24847;48.218;16.414;2022-12-10T14:22:49;3.30;99.90
39103;DHT22;24847;48.218;16.414;2022-12-10T14:28:10;3.30;99.90
39103;DHT22;24847;48.218;16.414;2022-12-10T14:33:22;3.30;99.90
39103;DHT22;24847;48.218;16.414;2022-12-10T14:38:30;3.30;99.90
39103;DHT22;24847;48.218;16.414;2022-12-10T14:43:40;3.40;99.90
39103;DHT22;24847;48.218;16.414;2022-12-10T14:48:48;3.30;99.90
39103;DHT22;24847;48.218;16.414;2022-12-10T14:53:57;3.40;99.90
39103;DHT22;24847;48.218;16.414;2022-12-10T14:59:12;3.20;99.90
39103;DHT22;24847;48.218;16.414;2022-12-10T15:04:18;3.30;99.90
39103;DHT22;24847;48.218;16.414;2022-12-10T15:09:25;3.20;99.90
39103;DHT22;24847;48.218;16.414;2022-12-10T15:14:30;3.20;99.90
39103;DHT22;24847;48.218;16.414;2022-12-10T15:19:34;3.20;99.90
39103;DHT22;24847;48.218;16.414;2022-12-10T15:24:41;3.10;99.90
39103;DHT22;24847;48.218;16.414;2022-12-10T15:29:45;3.20;99.90
39103;DHT22;24847;48.218;16.414;2022-12-10T15:34:52;3.10;99.90
39103;DHT22;24847;48.218;16.414;2022-12-10T15:40:21;3.00;99.90
39103;DHT22;24847;48.218;16.414;2022-12-10T15:45:37;3.00;99.90
39103;DHT22;24847;48.218;16.414;2022-12-10T15:50:42;3.10;99.90
39103;DHT22;24847;48.218;16.414;2022-12-10T15:55:47;3.10;99.90
39103;DHT22;24847;48.218;16.414;2022-12-10T16:00:51;3.20;99.90
39103;DHT22;24847;48.218;16.414;2022-12-10T16:05:54;3.20;99.90
39103;DHT22;24847;48.218;16.414;2022-12-10T16:11:02;3.10;99.90
39103;DHT22;24847;48.218;16.414;2022-12-10T16:16:12;3.10;99.90
39103;DHT22;24847;48.218;16.414;2022-12-10T16:21:18;3.10;99.90
39103;DHT22;24847;48.218;16.414;2022-12-10T16:26:25;3.10;99.90
39103;DHT22;24847;48.218;16.414;2022-12-10T16:31:28;3.20;99.90
39103;DHT22;24847;48.218;16.414;2022-12-10T16:36:31;3.10;99.90
39103;DHT22;24847;48.218;16.414;2022-12-10T16:41:37;3.10;99.90
39103;DHT22;24847;48.218;16.414;2022-12-10T16:46:41;3.10;99.90
39103;DHT22;24847;48.218;16.414;2022-12-10T16:51:46;3.10;99.90
39103;DHT22;24847;48.218;16.414;2022-12-10T16:56:53;3.20;99.90
39103;DHT22;24847;48.218;16.414;2022-12-10T17:01:58;3.20;99.90
39103;DHT22;24847;48.218;16.414;2022-12-10T17:07:02;3.20;99.90
39103;DHT22;24847;48.218;16.414;2022-12-10T17:12:07;3.30;99.90
39103;DHT22;24847;48.218;16.414;2022-12-10T17:17:10;3.10;99.90
39103;DHT22;24847;48.218;16.414;2022-12-10T17:22:12;3.20;99.90
39103;DHT22;24847;48.218;16.414;2022-12-10T17:27:18;3.10;99.90
39103;DHT22;24847;48.218;16.414;2022-12-10T17:32:22;3.10;99.90
39103;DHT22;24847;48.218;16.414;2022-12-10T17:37:25;3.00;99.90
39103;DHT22;24847;48.218;16.414;2022-12-10T17:42:33;3.00;99.90
39103;DHT22;24847;48.218;16.414;2022-12-10T17:47:35;3.00;99.90
39103;DHT22;24847;48.218;16.414;2022-12-10T17:52:39;3.10;99.90
39103;DHT22;24847;48.218;16.414;2022-12-10T17:57:43;3.10;99.90
39103;DHT22;24847;48.218;16.414;2022-12-10T18:02:46;3.00;99.90
39103;DHT22;24847;48.218;16.414;2022-12-10T18:07:50;3.00;99.90
39103;DHT22;24847;48.218;16.414;2022-12-10T18:12:54;3.10;99.90
39103;DHT22;24847;48.218;16.414;2022-12-10T18:17:59;3.10;99.90
39103;DHT22;24847;48.218;16.414;2022-12-10T18:23:06;3.00;99.90
39103;DHT22;24847;48.218;16.414;2022-12-10T18:28:43;3.00;99.90
39103;DHT22;24847;48.218;16.414;2022-12-10T18:33:49;3.10;99.90
39103;DHT22;24847;48.218;16.414;2022-12-10T18:38:54;3.10;99.90
39103;DHT22;24847;48.218;16.414;2022-12-10T18:44:00;3.00;99.90
39103;DHT22;24847;48.218;16.414;2022-12-10T18:49:03;2.90;99.90
39103;DHT22;24847;48.218;16.414;2022-12-10T18:54:06;2.90;99.90
39103;DHT22;24847;48.218;16.414;2022-12-10T18:59:14;3.00;99.90
39103;DHT22;24847;48.218;16.414;2022-12-10T19:04:18;2.90;99.90
39103;DHT22;24847;48.218;16.414;2022-12-10T19:09:22;3.00;99.90
39103;DHT22;24847;48.218;16.414;2022-12-10T19:14:28;3.00;99.90
39103;DHT22;24847;48.218;16.414;2022-12-10T19:19:32;3.00;99.90
39103;DHT22;24847;48.218;16.414;2022-12-10T19:24:36;3.00;99.90
39103;DHT22;24847;48.218;16.414;2022-12-10T19:29:43;2.90;99.90
39103;DHT22;24847;48.218;16.414;2022-12-10T19:34:48;2.90;99.90
39103;DHT22;24847;48.218;16.414;2022-12-10T19:39:53;3.00;99.90
39103;DHT22;24847;48.218;16.414;2022-12-10T19:45:03;3.10;99.90
39103;DHT22;24847;48.218;16.414;2022-12-10T19:50:14;3.00;99.90
39103;DHT22;24847;48.218;16.414;2022-12-10T19:55:20;3.00;99.90
39103;DHT22;24847;48.218;16.414;2022-12-10T20:00:28;2.90;99.90
39103;DHT22;24847;48.218;16.414;2022-12-10T20:05:35;3.00;99.90
39103;DHT22;24847;48.218;16.414;2022-12-10T20:10:39;2.80;99.90
39103;DHT22;24847;48.218;16.414;2022-12-10T20:15:45;2.80;99.90
39103;DHT22;24847;48.218;16.414;2022-12-10T20:20:49;2.70;99.90
39103;DHT22;24847;48.218;16.414;2022-12-10T20:25:53;2.70;99.90
39103;DHT22;24847;48.218;16.414;2022-12-10T20:31:00;2.60;99.90
39103;DHT22;24847;48.218;16.414;2022-12-10T20:36:09;2.60;99.90
39103;DHT22;24847;48.218;16.414;2022-12-10T20:41:14;2.50;99.90
39103;DHT22;24847;48.218;16.414;2022-12-10T20:46:22;2.60;99.90
39103;DHT22;24847;48.218;16.414;2022-12-10T20:51:28;2.60;99.90
39103;DHT22;24847;48.218;16.414;2022-12-10T20:56:34;2.70;99.90
39103;DHT22;24847;48.218;16.414;2022-12-10T21:01:39;2.70;99.90
39103;DHT22;24847;48.218;16.414;2022-12-10T21:06:44;2.60;99.90
39103;DHT22;24847;48.218;16.414;2022-12-10T21:11:49;2.60;99.90
39103;DHT22;24847;48.218;16.414;2022-12-10T21:16:55;2.50;99.90
39103;DHT22;24847;48.218;16.414;2022-12-10T21:21:59;2.50;99.90
39103;DHT22;24847;48.218;16.414;2022-12-10T21:27:01;2.60;99.90
39103;DHT22;24847;48.218;16.414;2022-12-10T21:32:07;2.40;99.90
39103;DHT22;24847;48.218;16.414;2022-12-10T21:37:09;2.70;99.90
39103;DHT22;24847;48.218;16.414;2022-12-10T21:42:14;2.70;99.90
39103;DHT22;24847;48.218;16.414;2022-12-10T21:47:35;2.60;99.90
39103;DHT22;24847;48.218;16.414;2022-12-10T21:52:38;2.70;99.90
39103;DHT22;24847;48.218;16.414;2022-12-10T21:57:40;2.60;99.90
39103;DHT22;24847;48.218;16.414;2022-12-10T22:02:44;2.60;99.90
39103;DHT22;24847;48.218;16.414;2022-12-10T22:07:47;2.50;99.90
39103;DHT22;24847;48.218;16.414;2022-12-10T22:12:50;2.60;99.90
39103;DHT22;24847;48.218;16.414;2022-12-10T22:17:53;2.60;99.90
39103;DHT22;24847;48.218;16.414;2022-12-10T22:22:55;2.40;99.90
39103;DHT22;24847;48.218;16.414;2022-12-10T22:27:58;2.50;99.90
39103;DHT22;24847;48.218;16.414;2022-12-10T22:33:02;2.40;99.90
39103;DHT22;24847;48.218;16.414;2022-12-10T22:38:05;2.40;99.90
39103;DHT22;24847;48.218;16.414;2022-12-10T22:43:08;2.50;99.90
39103;DHT22;24847;48.218;16.414;2022-12-10T22:48:11;2.40;99.90
39103;DHT22;24847;48.218;16.414;2022-12-10T22:53:14;2.40;99.90
39103;DHT22;24847;48.218;16.414;2022-12-10T22:58:16;2.50;99.90
39103;DHT22;24847;48.218;16.414;2022-12-10T23:03:21;2.50;99.90
39103;DHT22;24847;48.218;16.414;2022-12-10T23:08:24;2.40;99.90
39103;DHT22;24847;48.218;16.414;2022-12-10T23:13:28;2.40;99.90
39103;DHT22;24847;48.218;16.414;2022-12-10T23:18:31;2.30;99.90
39103;DHT22;24847;48.218;16.414;2022-12-10T23:23:34;2.40;99.90
39103;DHT22;24847;48.218;16.414;2022-12-10T23:28:36;2.40;99.90
39103;DHT22;24847;48.218;16.414;2022-12-10T23:33:40;2.40;99.90
39103;DHT22;24847;48.218;16.414;2022-12-10T23:38:42;2.20;99.90
39103;DHT22;24847;48.218;16.414;2022-12-10T23:43:44;2.20;99.90
39103;DHT22;24847;48.218;16.414;2022-12-10T23:48:48;2.20;99.90
39103;DHT22;24847;48.218;16.414;2022-12-10T23:53:50;2.30;99.90
39103;DHT22;24847;48.218;16.414;2022-12-10T23:58:52;2.20;99.90
